Time;durP1;ratioP1;P1;durP2;ratioP2;P2;SDS_P1;SDS_P2;PMS_P1;PMS_P2;Temp;Humidity;BMP_temperature;BMP_pressure;BME280_temperature;BME280_humidity;BME280_pressure;Samples;Min_cycle;Max_cycle;Signal;HPM_P1;HPM_P2
2022/07/14 00:02:17;;;;;;;2.53;1.70;;;20.00;94.00;;;;;;5042502;28;20037;-32
2022/07/14 00:04:43;;;;;;;2.30;1.63;;;19.90;94.50;;;;;;5038591;28;20086;-32
2022/07/14 00:07:08;;;;;;;4.55;1.80;;;19.80;95.10;;;;;;5039749;28;20035;-34
2022/07/14 00:09:34;;;;;;;2.60;2.33;;;19.80;95.20;;;;;;5041962;28;20039;-35
2022/07/14 00:12:00;;;;;;;1.80;1.70;;;19.80;94.70;;;;;;5037829;28;20060;-33
2022/07/14 00:14:25;;;;;;;1.80;1.70;;;19.60;94.40;;;;;;5043766;28;20064;-33
2022/07/14 00:16:51;;;;;;;3.28;1.55;;;19.60;94.30;;;;;;5040948;28;20048;-32
2022/07/14 00:19:17;;;;;;;2.03;1.88;;;19.60;94.00;;;;;;5042307;28;20567;-33
2022/07/14 00:21:43;;;;;;;2.13;1.85;;;19.60;94.60;;;;;;5038377;28;20048;-33
2022/07/14 00:24:11;;;;;;;2.00;1.90;;;19.60;94.20;;;;;;5037910;28;20359;-33
2022/07/14 00:26:39;;;;;;;3.08;2.35;;;19.60;94.30;;;;;;5040218;28;20116;-32
2022/07/14 00:29:05;;;;;;;3.50;1.80;;;19.60;94.50;;;;;;5041112;28;20021;-34
2022/07/14 00:31:31;;;;;;;1.92;1.70;;;19.50;95.60;;;;;;5042835;28;20473;-34
2022/07/14 00:33:57;;;;;;;1.70;1.60;;;19.40;95.10;;;;;;5048698;28;20068;-31
2022/07/14 00:36:23;;;;;;;3.08;2.00;;;19.40;94.90;;;;;;5037944;28;20025;-35
2022/07/14 00:38:49;;;;;;;2.65;1.55;;;19.50;95.30;;;;;;5042988;28;20547;-33
2022/07/14 00:41:15;;;;;;;1.70;1.60;;;19.50;94.60;;;;;;5037390;28;20901;-33
2022/07/14 00:43:40;;;;;;;4.07;2.70;;;19.60;94.50;;;;;;5044429;28;20157;-33
2022/07/14 00:46:07;;;;;;;1.80;1.70;;;19.50;96.00;;;;;;5037553;28;20032;-33
2022/07/14 00:48:33;;;;;;;2.58;1.60;;;19.50;95.30;;;;;;5039882;28;20032;-32
2022/07/14 00:50:58;;;;;;;1.77;1.67;;;19.50;95.80;;;;;;5042641;28;20033;-32
2022/07/14 00:53:24;;;;;;;1.40;1.38;;;19.50;94.40;;;;;;5037977;28;20075;-33
2022/07/14 00:55:50;;;;;;;1.60;1.50;;;19.40;94.10;;;;;;5039582;28;20024;-34
2022/07/14 00:58:15;;;;;;;1.83;1.73;;;19.10;96.10;;;;;;5040924;28;20486;-32
2022/07/14 01:00:42;;;;;;;1.77;1.67;;;19.00;97.20;;;;;;5045493;28;20033;-32
2022/07/14 01:03:07;;;;;;;2.25;2.05;;;19.00;98.50;;;;;;5041054;28;20095;-33
2022/07/14 01:05:36;;;;;;;3.65;2.03;;;19.00;98.10;;;;;;5039898;28;20656;-32
2022/07/14 01:08:02;;;;;;;2.80;1.83;;;18.90;97.00;;;;;;5042248;28;20036;-32
2022/07/14 01:10:28;;;;;;;2.65;1.90;;;18.90;97.00;;;;;;5048880;28;20056;-32
2022/07/14 01:12:59;;;;;;;3.72;1.80;;;18.80;97.60;;;;;;5044591;28;20037;-33
2022/07/14 01:15:24;;;;;;;2.20;1.75;;;18.80;96.90;;;;;;5048156;28;20041;-33
2022/07/14 01:17:50;;;;;;;2.13;1.80;;;18.80;96.50;;;;;;5030068;28;20040;-35
2022/07/14 01:20:17;;;;;;;2.55;1.75;;;19.00;96.10;;;;;;5045849;28;20039;-32
2022/07/14 01:22:43;;;;;;;1.95;1.85;;;19.00;95.50;;;;;;5041762;28;20055;-33
2022/07/14 01:25:09;;;;;;;3.65;1.70;;;18.90;96.00;;;;;;5036203;28;21251;-33
2022/07/14 01:27:36;;;;;;;2.65;1.73;;;18.80;96.30;;;;;;5038333;28;20036;-33
2022/07/14 01:30:03;;;;;;;4.45;2.08;;;18.80;95.80;;;;;;5045585;28;20544;-33
2022/07/14 01:32:29;;;;;;;2.08;1.98;;;18.50;99.20;;;;;;5045664;28;20036;-33
2022/07/14 01:34:54;;;;;;;2.00;1.80;;;18.30;99.90;;;;;;5047801;28;20032;-36
2022/07/14 01:37:21;;;;;;;2.10;1.90;;;18.00;99.90;;;;;;5042792;28;20033;-32
2022/07/14 01:39:46;;;;;;;1.77;1.65;;;18.10;99.90;;;;;;5045626;28;20029;-32
2022/07/14 01:42:12;;;;;;;3.58;2.05;;;18.20;99.90;;;;;;5042230;28;20060;-32
2022/07/14 01:44:38;;;;;;;1.83;1.73;;;18.30;99.90;;;;;;5042476;28;20291;-32
2022/07/14 01:47:04;;;;;;;1.80;1.70;;;18.30;99.90;;;;;;5044535;28;20036;-34
2022/07/14 01:49:29;;;;;;;1.83;1.73;;;18.30;99.10;;;;;;5043118;28;20127;-34
2022/07/14 01:51:55;;;;;;;2.35;1.85;;;18.40;98.60;;;;;;5042720;28;20064;-33
2022/07/14 01:54:21;;;;;;;3.47;1.80;;;18.50;98.60;;;;;;5032865;28;20036;-33
2022/07/14 01:56:46;;;;;;;1.92;1.70;;;18.50;98.40;;;;;;5041913;28;20033;-32
2022/07/14 01:59:12;;;;;;;1.95;1.85;;;18.40;98.90;;;;;;5042792;28;20052;-32
2022/07/14 02:01:41;;;;;;;2.50;2.28;;;18.10;99.90;;;;;;5041762;28;20124;-33
2022/07/14 02:04:12;;;;;;;2.70;1.77;;;18.30;99.60;;;;;;5041834;28;20025;-33
2022/07/14 02:06:54;;;;;;;2.30;1.52;;;18.30;98.80;;;;;;5043469;28;20025;-33
2022/07/14 02:09:21;;;;;;;1.90;1.80;;;18.40;98.30;;;;;;5039983;28;20066;-33
2022/07/14 02:14:32;;;;;;;2.08;1.63;;;18.30;97.80;;;;;;5045320;28;20090;-33
2022/07/14 02:16:57;;;;;;;2.10;2.00;;;18.40;98.80;;;;;;5046473;28;20045;-34
2022/07/14 02:19:24;;;;;;;1.80;1.70;;;18.40;98.40;;;;;;5045142;28;20043;-32
2022/07/14 02:21:51;;;;;;;3.75;2.08;;;18.40;97.90;;;;;;5044552;28;20047;-33
2022/07/14 02:24:17;;;;;;;4.30;1.80;;;18.40;98.20;;;;;;5043257;28;20057;-34
2022/07/14 02:26:43;;;;;;;1.63;1.52;;;18.40;97.50;;;;;;5039841;28;20283;-33
2022/07/14 02:29:10;;;;;;;1.98;1.60;;;18.50;97.30;;;;;;5040093;28;20057;-34
2022/07/14 02:31:35;;;;;;;2.13;1.90;;;18.40;98.70;;;;;;5041414;28;20493;-33
2022/07/14 02:34:02;;;;;;;1.90;1.80;;;18.10;99.90;;;;;;5044773;28;20361;-33
2022/07/14 02:36:29;;;;;;;2.45;2.00;;;17.60;99.90;;;;;;5041255;28;20025;-33
2022/07/14 02:38:55;;;;;;;2.10;2.00;;;17.30;99.90;;;;;;5043069;28;20397;-35
2022/07/14 02:41:21;;;;;;;2.00;1.90;;;17.20;99.90;;;;;;5041853;28;20115;-33
2022/07/14 02:43:47;;;;;;;2.28;1.83;;;17.10;99.90;;;;;;5045775;28;20498;-34
2022/07/14 02:46:13;;;;;;;2.83;1.70;;;17.20;99.90;;;;;;5038721;28;20080;-35
2022/07/14 02:48:38;;;;;;;3.92;1.88;;;17.30;99.90;;;;;;5039981;28;20029;-33
2022/07/14 02:51:07;;;;;;;2.70;2.10;;;17.40;99.90;;;;;;5041855;28;20111;-35
2022/07/14 02:53:34;;;;;;;1.80;1.70;;;17.60;99.90;;;;;;5043363;28;20497;-33
2022/07/14 02:56:01;;;;;;;3.93;1.90;;;17.70;99.90;;;;;;5040515;28;20463;-33
2022/07/14 02:58:26;;;;;;;3.70;2.00;;;17.80;99.90;;;;;;5040836;28;20029;-32
2022/07/14 03:00:52;;;;;;;2.72;2.08;;;17.90;99.90;;;;;;5042984;28;20041;-33
2022/07/14 03:03:18;;;;;;;2.20;2.00;;;18.00;99.90;;;;;;5043008;28;20045;-32
2022/07/14 03:05:44;;;;;;;1.95;1.70;;;17.80;99.90;;;;;;5038908;28;20090;-36
2022/07/14 03:08:10;;;;;;;2.00;1.90;;;17.90;99.90;;;;;;5038680;28;20033;-34
2022/07/14 03:10:35;;;;;;;2.70;1.75;;;17.90;99.90;;;;;;5038994;28;20065;-32
2022/07/14 03:13:02;;;;;;;1.85;1.70;;;17.90;99.90;;;;;;5049359;28;20103;-33
2022/07/14 03:15:27;;;;;;;2.60;1.92;;;17.90;99.90;;;;;;5045664;28;20560;-33
2022/07/14 03:17:53;;;;;;;2.20;2.00;;;17.90;99.90;;;;;;5041364;28;20033;-33
2022/07/14 03:20:19;;;;;;;3.17;1.90;;;17.70;99.90;;;;;;5041714;28;20033;-33
2022/07/14 03:22:45;;;;;;;2.17;1.98;;;17.50;99.90;;;;;;5043188;28;20068;-34
2022/07/14 03:25:11;;;;;;;2.30;2.10;;;17.50;99.90;;;;;;5040553;28;20140;-33
2022/07/14 03:27:38;;;;;;;4.53;1.90;;;17.40;99.90;;;;;;5036888;28;20029;-33
2022/07/14 03:30:05;;;;;;;3.35;3.05;;;17.30;99.90;;;;;;5044210;28;20398;-36
2022/07/14 03:32:31;;;;;;;2.22;2.00;;;17.30;99.90;;;;;;5040841;28;20036;-34
2022/07/14 03:34:57;;;;;;;3.03;1.98;;;17.40;99.90;;;;;;5042967;28;20041;-33
2022/07/14 03:37:23;;;;;;;2.90;2.15;;;17.00;99.90;;;;;;5043051;28;20025;-33
2022/07/14 03:39:49;;;;;;;3.28;1.92;;;16.90;99.90;;;;;;5043241;28;20086;-33
2022/07/14 03:42:15;;;;;;;2.00;1.90;;;16.90;99.90;;;;;;5040479;28;20045;-33
2022/07/14 03:44:41;;;;;;;2.20;2.10;;;16.90;99.90;;;;;;5040207;28;20106;-33
2022/07/14 03:47:07;;;;;;;2.63;1.90;;;17.00;99.90;;;;;;5043886;28;20070;-33
2022/07/14 03:49:33;;;;;;;3.30;2.13;;;17.00;99.90;;;;;;5041914;28;20436;-34
2022/07/14 03:51:59;;;;;;;2.25;2.05;;;17.20;99.90;;;;;;5040376;28;20044;-34
2022/07/14 03:54:24;;;;;;;2.13;1.85;;;17.20;99.90;;;;;;5037776;28;20028;-36
2022/07/14 03:56:50;;;;;;;2.67;2.15;;;17.10;99.90;;;;;;5044127;28;20032;-33
2022/07/14 03:59:15;;;;;;;2.65;2.45;;;17.00;99.90;;;;;;5036887;28;20588;-33
2022/07/14 04:01:41;;;;;;;2.38;2.08;;;17.00;99.90;;;;;;5036935;28;20489;-35
2022/07/14 04:04:07;;;;;;;2.13;1.95;;;16.90;99.90;;;;;;5039184;28;20021;-33
2022/07/14 04:06:32;;;;;;;2.78;2.25;;;16.70;99.90;;;;;;5034616;28;20025;-33
2022/07/14 04:08:59;;;;;;;2.10;2.00;;;16.40;99.90;;;;;;5041911;28;20021;-33
2022/07/14 04:11:24;;;;;;;3.08;2.13;;;16.30;99.90;;;;;;5039804;28;20395;-33
2022/07/14 04:13:50;;;;;;;4.10;2.40;;;16.20;99.90;;;;;;5070242;28;20028;-33
2022/07/14 04:16:16;;;;;;;2.40;2.08;;;16.20;99.90;;;;;;5039399;28;20053;-34
2022/07/14 04:18:41;;;;;;;2.35;2.03;;;16.30;99.90;;;;;;5038827;28;20489;-33
2022/07/14 04:21:08;;;;;;;5.95;2.10;;;16.50;99.90;;;;;;5043642;28;20029;-33
2022/07/14 04:23:34;;;;;;;3.33;2.35;;;16.50;99.90;;;;;;5044874;28;20510;-34
2022/07/14 04:26:01;;;;;;;2.80;2.35;;;16.70;99.90;;;;;;5039073;28;20025;-34
2022/07/14 04:28:27;;;;;;;3.08;2.00;;;16.60;99.90;;;;;;5032916;28;20024;-33
2022/07/14 04:30:53;;;;;;;2.83;2.03;;;16.70;99.90;;;;;;5039693;28;20082;-34
2022/07/14 04:33:20;;;;;;;2.60;1.90;;;16.70;99.90;;;;;;5037275;28;20040;-34
2022/07/14 04:35:46;;;;;;;2.65;2.10;;;16.60;99.90;;;;;;5045073;28;20040;-33
2022/07/14 04:38:11;;;;;;;2.10;1.90;;;16.70;99.90;;;;;;5041242;28;20426;-34
2022/07/14 04:40:38;;;;;;;2.50;2.20;;;17.00;99.90;;;;;;5043391;28;20021;-33
2022/07/14 04:43:04;;;;;;;3.08;2.15;;;17.20;99.90;;;;;;5044092;28;20028;-33
2022/07/14 04:45:29;;;;;;;4.43;2.13;;;17.30;99.90;;;;;;5050820;28;20033;-33
2022/07/14 04:47:55;;;;;;;3.15;2.10;;;17.50;99.90;;;;;;5037168;28;20394;-33
2022/07/14 04:53:05;;;;;;;6.38;2.17;;;17.50;99.90;;;;;;5042440;28;20032;-34
2022/07/14 04:55:30;;;;;;;3.17;1.90;;;17.50;99.90;;;;;;5047806;28;20401;-34
2022/07/14 04:57:56;;;;;;;3.40;2.10;;;17.50;99.90;;;;;;5042917;28;20592;-33
2022/07/14 05:00:22;;;;;;;3.70;2.42;;;17.50;99.90;;;;;;5041568;28;20075;-34
2022/07/14 05:02:47;;;;;;;4.35;2.20;;;17.50;99.90;;;;;;5048315;28;20483;-33
2022/07/14 05:05:13;;;;;;;2.33;2.05;;;17.60;99.90;;;;;;5043819;28;20049;-35
2022/07/14 05:07:38;;;;;;;2.67;2.00;;;17.70;99.90;;;;;;5042192;28;20035;-33
2022/07/14 05:10:05;;;;;;;2.47;2.13;;;17.80;99.90;;;;;;5042853;28;20423;-32
2022/07/14 05:12:31;;;;;;;3.45;2.20;;;17.80;99.90;;;;;;5045963;28;20048;-33
2022/07/14 05:14:57;;;;;;;4.07;2.25;;;17.70;99.90;;;;;;5042769;28;20679;-33
2022/07/14 05:17:23;;;;;;;4.13;2.30;;;17.60;99.90;;;;;;5042870;28;20462;-34
2022/07/14 05:19:50;;;;;;;5.45;2.10;;;17.60;99.90;;;;;;5039709;28;20422;-34
2022/07/14 05:22:16;;;;;;;5.35;2.42;;;17.70;99.90;;;;;;5040295;28;20139;-35
2022/07/14 05:24:42;;;;;;;3.63;2.20;;;17.90;99.90;;;;;;5047063;28;20025;-33
2022/07/14 05:27:08;;;;;;;2.25;2.00;;;18.00;99.90;;;;;;5044726;28;20094;-35
2022/07/14 05:29:33;;;;;;;2.28;2.08;;;18.20;99.90;;;;;;5045239;28;20028;-33
2022/07/14 05:31:59;;;;;;;4.68;2.42;;;18.30;99.90;;;;;;5044802;28;20119;-33
2022/07/14 05:34:25;;;;;;;4.97;2.20;;;18.40;99.90;;;;;;5049030;28;20059;-35
2022/07/14 05:36:50;;;;;;;2.45;2.22;;;18.60;99.90;;;;;;5043009;28;20034;-33
2022/07/14 05:39:16;;;;;;;4.10;2.72;;;19.00;99.90;;;;;;5045057;28;20029;-33
2022/07/14 05:41:41;;;;;;;4.65;2.40;;;19.10;99.90;;;;;;5038509;28;20137;-33
2022/07/14 05:44:07;;;;;;;6.93;2.97;;;19.30;99.90;;;;;;5044724;28;20497;-33
2022/07/14 05:46:33;;;;;;;4.75;3.35;;;19.40;97.40;;;;;;5042456;28;20052;-33
2022/07/14 05:48:59;;;;;;;5.07;3.13;;;19.50;97.70;;;;;;5045953;28;20517;-33
2022/07/14 05:51:24;;;;;;;7.38;3.80;;;19.50;96.30;;;;;;5040834;28;20493;-33
2022/07/14 05:53:50;;;;;;;5.57;3.53;;;19.60;94.50;;;;;;5038926;28;20040;-33
2022/07/14 05:56:17;;;;;;;7.75;4.00;;;19.70;94.00;;;;;;5046650;28;20025;-33
2022/07/14 05:58:44;;;;;;;6.30;3.15;;;19.70;91.90;;;;;;5044542;28;20097;-33
2022/07/14 06:01:10;;;;;;;6.90;3.07;;;19.70;92.30;;;;;;5044856;28;20572;-33
2022/07/14 06:03:36;;;;;;;6.22;2.97;;;19.90;92.30;;;;;;5046083;28;20152;-32
2022/07/14 06:06:03;;;;;;;4.85;2.95;;;20.10;91.80;;;;;;5041677;28;20382;-34
2022/07/14 06:08:29;;;;;;;5.05;2.97;;;20.40;91.90;;;;;;5067005;28;20083;-33
2022/07/14 06:10:56;;;;;;;4.05;2.70;;;20.40;92.00;;;;;;5046370;28;20474;-32
2022/07/14 06:13:31;;;;;;;3.90;2.20;;;20.50;90.90;;;;;;5039828;28;20056;-32
2022/07/14 06:15:57;;;;;;;2.72;2.40;;;20.60;90.90;;;;;;5040605;28;20148;-33
2022/07/14 06:18:24;;;;;;;5.05;2.28;;;20.80;90.90;;;;;;5042551;28;20029;-33
2022/07/14 06:20:49;;;;;;;3.42;2.25;;;21.10;90.00;;;;;;5042273;28;20036;-33
2022/07/14 06:23:15;;;;;;;4.13;2.00;;;21.40;82.90;;;;;;5041135;28;20049;-33
2022/07/14 06:25:41;;;;;;;2.20;1.90;;;21.50;81.10;;;;;;5047657;28;20032;-34
2022/07/14 06:28:07;;;;;;;3.90;2.00;;;21.60;79.50;;;;;;5043463;28;20056;-33
2022/07/14 06:30:34;;;;;;;3.10;2.28;;;21.70;81.70;;;;;;5043501;28;20056;-33
2022/07/14 06:33:00;;;;;;;2.67;1.83;;;21.80;78.40;;;;;;5046473;28;20436;-33
2022/07/14 06:35:26;;;;;;;1.85;1.75;;;21.70;76.30;;;;;;5045504;28;20031;-33
2022/07/14 06:37:53;;;;;;;2.15;1.67;;;21.80;77.80;;;;;;5040223;28;20512;-33
2022/07/14 06:40:19;;;;;;;1.92;1.73;;;21.80;78.30;;;;;;5040067;28;20040;-33
2022/07/14 06:42:44;;;;;;;2.08;1.90;;;22.00;80.20;;;;;;5042703;28;20398;-33
2022/07/14 06:45:11;;;;;;;3.00;1.67;;;22.20;78.10;;;;;;5042293;28;20067;-34
2022/07/14 06:47:36;;;;;;;4.72;1.75;;;22.40;76.60;;;;;;5047222;28;20028;-33
2022/07/14 06:50:03;;;;;;;3.05;1.63;;;22.50;77.70;;;;;;5044678;28;20032;-35
2022/07/14 06:52:29;;;;;;;3.83;1.73;;;22.50;78.70;;;;;;5042667;28;20025;-34
2022/07/14 06:54:58;;;;;;;2.65;1.70;;;22.60;77.00;;;;;;5040982;28;20033;-34
2022/07/14 06:57:24;;;;;;;1.58;1.48;;;22.60;77.50;;;;;;5045969;28;20029;-33
2022/07/14 06:59:49;;;;;;;1.70;1.60;;;22.80;75.50;;;;;;5037284;28;20524;-33
2022/07/14 07:02:15;;;;;;;4.05;1.70;;;22.90;75.50;;;;;;5045426;28;20034;-34
2022/07/14 07:04:41;;;;;;;2.00;1.90;;;23.20;72.20;;;;;;5042779;28;20044;-33
2022/07/14 07:07:06;;;;;;;2.53;1.50;;;23.40;71.50;;;;;;5042082;28;20024;-34
2022/07/14 07:09:32;;;;;;;2.75;1.65;;;23.60;66.90;;;;;;5045672;28;20035;-34
2022/07/14 07:11:58;;;;;;;1.85;1.70;;;23.50;68.20;;;;;;5044316;28;20032;-33
2022/07/14 07:14:24;;;;;;;1.60;1.50;;;23.70;66.10;;;;;;5061433;28;20121;-33
2022/07/14 07:16:51;;;;;;;3.00;1.60;;;23.90;65.60;;;;;;5047090;28;20449;-33
2022/07/14 07:19:17;;;;;;;1.67;1.58;;;24.20;65.80;;;;;;5043878;28;20029;-32
2022/07/14 07:21:43;;;;;;;1.90;1.40;;;24.50;60.80;;;;;;5045217;28;20130;-34
2022/07/14 07:24:09;;;;;;;2.83;1.98;;;24.50;60.50;;;;;;5041604;28;20059;-33
2022/07/14 07:26:37;;;;;;;2.42;1.60;;;24.70;62.40;;;;;;5041880;28;20490;-33
2022/07/14 07:29:04;;;;;;;1.98;1.50;;;24.90;55.50;;;;;;5045846;28;20036;-34
2022/07/14 07:31:31;;;;;;;3.75;1.75;;;25.10;56.50;;;;;;5041917;28;20036;-33
2022/07/14 07:33:56;;;;;;;1.75;1.48;;;25.30;57.40;;;;;;5049847;28;20032;-35
2022/07/14 07:36:22;;;;;;;1.60;1.50;;;25.60;53.30;;;;;;5036813;28;20033;-32
2022/07/14 07:38:48;;;;;;;2.83;1.60;;;25.60;53.30;;;;;;5043655;28;20025;-34
2022/07/14 07:41:13;;;;;;;1.98;1.50;;;25.60;52.70;;;;;;5039205;28;20029;-33
2022/07/14 07:43:39;;;;;;;1.45;1.35;;;25.90;51.60;;;;;;5044410;28;20033;-33
2022/07/14 07:46:05;;;;;;;2.40;1.63;;;26.00;51.60;;;;;;5042844;28;20029;-33
2022/07/14 07:48:32;;;;;;;2.85;1.60;;;26.40;51.90;;;;;;5041900;28;20070;-34
2022/07/14 07:50:58;;;;;;;1.85;1.60;;;26.60;51.60;;;;;;5041576;28;20097;-33
2022/07/14 07:53:24;;;;;;;4.03;1.45;;;26.70;51.70;;;;;;5041611;28;20474;-34
2022/07/14 07:55:51;;;;;;;1.55;1.42;;;27.00;49.20;;;;;;5043181;28;20029;-33
2022/07/14 07:58:17;;;;;;;1.90;1.50;;;27.20;48.40;;;;;;5037208;28;20029;-32
2022/07/14 08:00:43;;;;;;;1.50;1.33;;;27.40;48.90;;;;;;5042093;28;20543;-33
2022/07/14 08:03:08;;;;;;;3.65;1.58;;;27.30;50.40;;;;;;5042386;28;20025;-34
2022/07/14 08:05:34;;;;;;;2.42;1.65;;;27.50;49.30;;;;;;5042116;28;20442;-33
2022/07/14 08:08:00;;;;;;;1.75;1.60;;;27.60;49.10;;;;;;5043185;28;20496;-33
2022/07/14 08:10:25;;;;;;;1.58;1.33;;;27.70;50.00;;;;;;5041239;28;20025;-34
2022/07/14 08:12:51;;;;;;;2.20;1.67;;;27.80;47.70;;;;;;5040388;28;20025;-34
2022/07/14 08:15:17;;;;;;;1.50;1.40;;;27.70;46.70;;;;;;5040439;28;20505;-33
2022/07/14 08:17:43;;;;;;;1.60;1.42;;;27.80;44.70;;;;;;5035404;28;20039;-33
2022/07/14 08:20:10;;;;;;;1.50;1.40;;;28.20;47.30;;;;;;5040686;28;20033;-33
2022/07/14 08:22:37;;;;;;;2.05;1.60;;;28.50;45.10;;;;;;5042504;28;20056;-33
2022/07/14 08:25:04;;;;;;;3.50;1.47;;;28.50;44.20;;;;;;5045015;28;20029;-33
2022/07/14 08:27:30;;;;;;;1.50;1.40;;;28.90;41.70;;;;;;5039587;28;20404;-33
2022/07/14 08:29:56;;;;;;;1.92;1.50;;;28.60;42.80;;;;;;5043706;28;20071;-33
2022/07/14 08:32:40;;;;;;;1.83;1.40;;;28.80;42.60;;;;;;5039300;28;20587;-33
2022/07/14 08:35:09;;;;;;;1.63;1.50;;;28.90;41.40;;;;;;5042733;28;20052;-32
2022/07/14 08:37:36;;;;;;;1.92;1.30;;;29.00;41.90;;;;;;5039634;28;20447;-34
2022/07/14 08:40:04;;;;;;;2.33;1.30;;;29.10;38.20;;;;;;5041538;28;20091;-34
2022/07/14 08:42:31;;;;;;;2.80;1.40;;;29.30;39.00;;;;;;5038803;28;20116;-33
2022/07/14 08:44:57;;;;;;;2.80;1.52;;;29.20;39.40;;;;;;5072130;28;20047;-35
2022/07/14 08:47:23;;;;;;;1.70;1.23;;;29.10;38.40;;;;;;5040334;28;20041;-33
2022/07/14 08:49:48;;;;;;;4.18;1.30;;;29.50;36.80;;;;;;5039023;28;20066;-32
2022/07/14 08:52:17;;;;;;;2.00;1.20;;;29.60;38.50;;;;;;5042427;28;20486;-33
2022/07/14 08:54:45;;;;;;;3.38;1.17;;;29.60;37.40;;;;;;5040148;28;20036;-33
2022/07/14 08:57:11;;;;;;;1.90;1.45;;;29.70;39.10;;;;;;5036851;28;20041;-33
2022/07/14 08:59:38;;;;;;;1.33;1.23;;;29.80;36.60;;;;;;5046565;28;20057;-33
2022/07/14 09:02:04;;;;;;;1.00;1.00;;;29.80;37.00;;;;;;5046117;28;20124;-33
2022/07/14 09:04:30;;;;;;;1.58;1.48;;;29.90;37.10;;;;;;5042755;28;20032;-33
2022/07/14 09:06:56;;;;;;;2.25;1.20;;;30.10;35.50;;;;;;5041511;28;20434;-33
2022/07/14 09:09:29;;;;;;;2.97;1.25;;;30.40;36.60;;;;;;5047320;28;20036;-33
2022/07/14 09:12:06;;;;;;;1.30;1.20;;;30.60;34.20;;;;;;5048415;28;20120;-33
2022/07/14 09:17:20;;;;;;;1.83;1.73;;;30.60;34.50;;;;;;5043891;28;20471;-33
2022/07/14 09:20:10;;;;;;;1.00;1.00;;;30.80;34.00;;;;;;5047995;28;20048;-33
2022/07/14 09:22:41;;;;;;;1.13;1.13;;;30.90;31.50;;;;;;5047831;28;20045;-36
2022/07/14 09:25:09;;;;;;;1.10;1.00;;;30.90;32.00;;;;;;5048065;28;20448;-34
2022/07/14 09:27:36;;;;;;;2.20;1.10;;;30.70;31.20;;;;;;5047878;28;20068;-33
2022/07/14 09:30:03;;;;;;;3.13;1.20;;;30.90;32.00;;;;;;5049448;28;20021;-33
2022/07/14 09:32:48;;;;;;;1.10;1.10;;;30.80;31.90;;;;;;5048123;28;20060;-34
2022/07/14 09:35:17;;;;;;;3.47;1.20;;;31.00;30.90;;;;;;5051595;28;20040;-34
2022/07/14 09:37:44;;;;;;;1.00;1.00;;;30.60;28.90;;;;;;5051560;28;20078;-32
2022/07/14 09:40:15;;;;;;;2.45;1.05;;;30.50;29.50;;;;;;5084002;28;20390;-33
2022/07/14 09:42:59;;;;;;;2.85;1.35;;;30.70;30.20;;;;;;5051476;28;20108;-34
2022/07/14 09:45:29;;;;;;;3.65;1.00;;;30.90;31.10;;;;;;5050411;28;20017;-35
2022/07/14 09:48:16;;;;;;;1.88;1.02;;;31.10;29.20;;;;;;5053066;28;20112;-33
2022/07/14 09:50:47;;;;;;;;;;;31.40;29.60;;;;;;5049267;28;20124;-33
2022/07/14 09:53:25;;;;;;;1.05;1.05;;;31.30;30.60;;;;;;5045764;28;19948;-34
2022/07/14 09:56:08;;;;;;;1.77;1.00;;;31.20;28.00;;;;;;5060039;28;20033;-35
2022/07/14 09:58:41;;;;;;;1.15;1.05;;;31.50;28.60;;;;;;5054069;28;20028;-33
2022/07/14 10:01:09;;;;;;;1.38;0.85;;;31.30;29.10;;;;;;5046378;28;20123;-34
2022/07/14 10:03:35;;;;;;;;;;;31.30;30.90;;;;;;5055958;28;20064;-33
2022/07/14 10:06:02;;;;;;;2.60;0.90;;;31.20;30.00;;;;;;5050061;28;19928;-33
2022/07/14 10:08:29;;;;;;;;;;;31.30;30.50;;;;;;5054514;28;20045;-32
2022/07/14 10:10:57;;;;;;;1.10;1.00;;;31.40;29.40;;;;;;5051006;28;20029;-33
2022/07/14 10:13:24;;;;;;;1.00;1.00;;;31.50;28.20;;;;;;5049692;28;20052;-34
2022/07/14 10:15:52;;;;;;;1.20;1.10;;;31.10;28.80;;;;;;5046342;28;20061;-35
2022/07/14 10:18:18;;;;;;;0.98;0.98;;;30.90;28.00;;;;;;5045273;28;20041;-34
2022/07/14 10:20:52;;;;;;;0.90;0.90;;;30.90;28.70;;;;;;5051662;28;20032;-34
2022/07/14 10:23:19;;;;;;;1.23;1.10;;;30.90;31.40;;;;;;5049160;28;20052;-36
2022/07/14 10:25:50;;;;;;;1.90;0.93;;;31.00;30.00;;;;;;5048869;28;20025;-33
2022/07/14 10:28:17;;;;;;;1.05;1.05;;;31.30;30.60;;;;;;5051221;28;20025;-32
2022/07/14 10:30:53;;;;;;;1.23;1.20;;;31.30;30.10;;;;;;5047950;28;20092;-33
2022/07/14 10:33:33;;;;;;;0.98;0.75;;;31.60;29.70;;;;;;5059501;28;20501;-33
2022/07/14 10:36:22;;;;;;;2.80;1.15;;;31.30;28.20;;;;;;5050759;28;20074;-33
2022/07/14 10:39:11;;;;;;;2.75;1.10;;;31.40;29.40;;;;;;5050370;28;20123;-33
2022/07/14 10:42:30;;;;;;;1.50;1.10;;;31.20;29.30;;;;;;5040168;28;20052;-33
2022/07/14 10:44:56;;;;;;;1.60;1.10;;;30.60;28.60;;;;;;5024238;28;20036;-32
2022/07/14 10:47:25;;;;;;;1.45;0.98;;;30.70;31.20;;;;;;5053911;28;20544;-33
2022/07/14 10:50:12;;;;;;;3.35;1.08;;;31.40;29.40;;;;;;5046793;28;20536;-34
2022/07/14 10:53:00;;;;;;;1.00;1.00;;;31.40;30.60;;;;;;5047172;28;20747;-33
2022/07/14 10:55:28;;;;;;;1.55;0.98;;;31.00;28.90;;;;;;5043917;28;20067;-33
2022/07/14 10:58:00;;;;;;;1.45;1.35;;;30.60;29.90;;;;;;5048493;28;20047;-32
2022/07/14 11:00:44;;;;;;;1.40;1.30;;;30.40;29.80;;;;;;5047354;28;20040;-32
2022/07/14 11:03:39;;;;;;;2.38;1.52;;;30.30;30.60;;;;;;5048050;28;20390;-32
2022/07/14 11:06:08;;;;;;;1.30;0.95;;;30.40;31.00;;;;;;5048353;28;20025;-32
2022/07/14 11:08:36;;;;;;;3.70;1.20;;;30.60;26.70;;;;;;5044805;28;20119;-33
2022/07/14 11:11:08;;;;;;;3.38;1.20;;;30.60;29.80;;;;;;5046576;28;20024;-33
2022/07/14 11:13:54;;;;;;;1.52;1.00;;;30.60;30.20;;;;;;5047366;28;20482;-32
2022/07/14 11:16:39;;;;;;;1.77;1.27;;;30.80;30.30;;;;;;5045598;28;20041;-33
2022/07/14 11:19:40;;;;;;;1.90;1.00;;;30.90;30.60;;;;;;5052899;28;20029;-36
2022/07/14 11:22:21;;;;;;;2.33;1.15;;;30.90;31.20;;;;;;5049259;28;20052;-34
2022/07/14 11:24:56;;;;;;;1.45;0.90;;;31.00;29.60;;;;;;5053286;28;20397;-33
2022/07/14 11:27:38;;;;;;;1.00;1.00;;;30.90;28.30;;;;;;5047640;28;20190;-33
2022/07/14 11:30:25;;;;;;;1.70;1.05;;;30.80;29.70;;;;;;5048002;28;20061;-34
2022/07/14 11:33:09;;;;;;;1.00;1.00;;;31.00;29.90;;;;;;5050111;28;20090;-33
2022/07/14 11:36:17;;;;;;;1.33;1.05;;;31.10;29.90;;;;;;5045778;28;20178;-32
2022/07/14 11:38:43;;;;;;;1.58;1.10;;;31.00;29.80;;;;;;5033272;28;20048;-33
2022/07/14 11:41:12;;;;;;;1.08;0.90;;;30.90;28.30;;;;;;5051161;28;20028;-33
2022/07/14 11:43:40;;;;;;;1.13;1.08;;;30.70;27.50;;;;;;5047135;28;20033;-33
2022/07/14 11:46:09;;;;;;;0.95;0.88;;;30.60;27.40;;;;;;5050556;28;20040;-35
2022/07/14 11:48:38;;;;;;;5.07;1.10;;;30.70;29.30;;;;;;5043253;28;20055;-33
2022/07/14 11:51:19;;;;;;;3.25;0.98;;;30.70;27.50;;;;;;5050489;28;20029;-33
2022/07/14 11:53:45;;;;;;;1.17;1.08;;;30.70;29.20;;;;;;5043569;28;20036;-32
2022/07/14 11:56:12;;;;;;;1.52;0.80;;;30.80;26.80;;;;;;5049544;28;20363;-32
2022/07/14 11:58:41;;;;;;;0.93;0.93;;;30.80;27.10;;;;;;5042928;28;20068;-33
2022/07/14 12:01:08;;;;;;;1.10;1.00;;;30.90;27.90;;;;;;5047943;28;20029;-32
2022/07/14 12:03:34;;;;;;;1.15;0.80;;;31.00;28.90;;;;;;5080989;28;20028;-32
2022/07/14 12:06:01;;;;;;;2.85;1.20;;;31.10;27.90;;;;;;5049429;28;20557;-32
2022/07/14 12:08:29;;;;;;;3.10;0.95;;;31.00;28.60;;;;;;5046718;28;20029;-33
2022/07/14 12:11:05;;;;;;;0.98;0.90;;;31.00;28.80;;;;;;5049414;28;20486;-33
2022/07/14 12:13:43;;;;;;;2.45;1.00;;;31.00;27.60;;;;;;5046778;28;20432;-32
2022/07/14 12:16:09;;;;;;;1.33;0.90;;;31.00;27.90;;;;;;5047382;28;20097;-32
2022/07/14 12:18:35;;;;;;;1.25;1.00;;;30.90;27.00;;;;;;5049202;28;20025;-33
2022/07/14 12:21:01;;;;;;;1.90;1.20;;;30.80;26.80;;;;;;5048484;28;20025;-33
2022/07/14 12:23:28;;;;;;;1.15;1.05;;;31.00;28.00;;;;;;5049081;28;20494;-33
2022/07/14 12:25:58;;;;;;;4.47;1.23;;;31.10;27.90;;;;;;5048868;28;20082;-33
2022/07/14 12:28:25;;;;;;;1.83;0.90;;;31.10;29.10;;;;;;5044222;28;20037;-33
2022/07/14 12:30:59;;;;;;;1.75;1.00;;;31.20;28.30;;;;;;5047876;28;20045;-34
2022/07/14 12:33:36;;;;;;;1.00;0.90;;;31.20;27.40;;;;;;5046425;28;20572;-32
2022/07/14 12:36:03;;;;;;;0.90;0.90;;;31.20;27.50;;;;;;5048818;28;20021;-34
2022/07/14 12:38:33;;;;;;;1.40;1.05;;;31.20;29.40;;;;;;5048716;28;20369;-34
2022/07/14 12:41:01;;;;;;;2.22;1.10;;;31.40;29.40;;;;;;5049113;28;20028;-33
2022/07/14 12:43:31;;;;;;;2.88;1.10;;;31.50;28.10;;;;;;5044183;28;20402;-34
2022/07/14 12:46:10;;;;;;;1.85;0.90;;;31.70;29.10;;;;;;5047878;28;20032;-33
2022/07/14 12:48:56;;;;;;;1.55;1.10;;;31.60;28.20;;;;;;5045627;28;20025;-33
2022/07/14 12:51:33;;;;;;;1.88;1.20;;;31.60;29.50;;;;;;5047371;28;20528;-34
2022/07/14 12:54:11;;;;;;;2.70;0.88;;;31.70;27.90;;;;;;5047268;28;20394;-33
2022/07/14 12:56:43;;;;;;;1.17;1.02;;;31.70;27.20;;;;;;5049542;28;20383;-33
2022/07/14 12:59:11;;;;;;;1.88;0.75;;;31.60;28.60;;;;;;5046746;28;20048;-33
2022/07/14 13:01:49;;;;;;;1.33;1.20;;;31.80;27.90;;;;;;5046052;28;20064;-33
2022/07/14 13:04:46;;;;;;;1.83;1.00;;;31.90;27.30;;;;;;5048029;28;20116;-34